Terminal Aerodrome Forecast
Issued by NWS

Home | Current Version | Previous Version | Text Only | Print | Product List | Glossary On
Versions: 1 2 3 4 5 6 7 8 9 10 11 12 13 14 15 16 17 18 19 20 21 22 23
000
FTUS45 KBOU 222337
TAFAPA
TAF
KAPA 222337Z 2300/2324 36010KT P6SM FEW080 BKN120 OVC200
     FM230400 04008KT P6SM SCT060 BKN090 BKN200
     FM230900 01010KT P6SM SCT020 OVC040
     FM231100 36013G20KT 5SM BR BKN008 OVC015
      TEMPO 2311/2313 3SM -SHRA BKN006 OVC012
     FM231600 03010KT P6SM SCT035 OVC050
     FM232200 14006KT P6SM SCT040 BKN060=

USA.gov is the U.S. government's official web portal to all federal, state and local government web resources and services.